createdAt,value
2022-08-16T00:02:30.670Z,6.00
2022-08-16T00:04:59.689Z,6.13
2022-08-16T00:07:29.323Z,5.90
2022-08-16T00:10:00.138Z,5.78
2022-08-16T00:12:29.764Z,5.85
2022-08-16T00:14:59.302Z,5.53
2022-08-16T00:17:26.806Z,5.28
2022-08-16T00:19:56.245Z,5.30
2022-08-16T00:22:27.770Z,5.55
2022-08-16T00:27:23.036Z,4.90
2022-08-16T00:30:08.335Z,5.63
2022-08-16T00:32:38.386Z,5.20
2022-08-16T00:35:15.337Z,5.25
2022-08-16T00:37:58.363Z,5.63
2022-08-16T00:40:43.953Z,4.75
2022-08-16T00:43:40.713Z,5.70
2022-08-16T00:46:32.943Z,4.90
2022-08-16T00:49:05.774Z,5.03
2022-08-16T00:51:32.961Z,5.07
2022-08-16T00:54:00.769Z,4.70
2022-08-16T00:56:58.342Z,5.20
2022-08-16T00:59:21.896Z,4.88
2022-08-16T01:04:29.513Z,4.85
2022-08-16T01:07:01.806Z,5.45
2022-08-16T01:09:37.321Z,5.20
2022-08-16T01:12:08.492Z,5.38
2022-08-16T01:14:41.525Z,4.70
2022-08-16T01:17:12.659Z,5.07
2022-08-16T01:19:44.407Z,5.07
2022-08-16T01:22:47.814Z,5.63
2022-08-16T01:25:33.984Z,5.55
2022-08-16T01:28:07.406Z,5.00
2022-08-16T01:30:49.535Z,4.97
2022-08-16T01:33:19.238Z,5.68
2022-08-16T01:35:52.634Z,4.72
2022-08-16T01:38:57.449Z,5.40
2022-08-16T01:41:30.021Z,4.90
2022-08-16T01:43:57.184Z,4.90
2022-08-16T01:46:42.674Z,4.82
2022-08-16T01:49:43.287Z,4.50
2022-08-16T01:52:29.231Z,4.53
2022-08-16T01:54:57.652Z,4.90
2022-08-16T01:57:24.829Z,4.85
2022-08-16T01:59:54.752Z,5.18
2022-08-16T02:02:27.094Z,5.25
2022-08-16T02:04:57.417Z,5.70
2022-08-16T02:07:24.535Z,5.38
2022-08-16T02:09:56.978Z,5.75
2022-08-16T02:12:50.817Z,5.10
2022-08-16T02:15:17.287Z,5.15
2022-08-16T02:17:52.666Z,5.15
2022-08-16T02:20:26.122Z,5.07
2022-08-16T02:22:55.228Z,5.80
2022-08-16T02:25:23.538Z,5.03
2022-08-16T02:27:51.510Z,5.75
2022-08-16T02:30:37.058Z,5.30
2022-08-16T02:33:11.544Z,5.90
2022-08-16T02:35:53.736Z,5.50
2022-08-16T02:38:22.693Z,5.50
2022-08-16T02:40:49.569Z,5.78
2022-08-16T02:43:16.519Z,5.35
2022-08-16T02:45:43.677Z,5.53
2022-08-16T02:48:28.021Z,5.25
2022-08-16T02:51:06.415Z,5.70
2022-08-16T02:53:43.282Z,5.18
2022-08-16T02:56:14.996Z,5.90
2022-08-16T03:01:24.653Z,5.05
2022-08-16T03:04:41.160Z,5.40
2022-08-16T03:06:47.557Z,5.38
2022-08-16T03:09:16.316Z,5.30
2022-08-16T03:11:44.886Z,5.65
2022-08-16T03:14:12.780Z,5.50
2022-08-16T03:16:42.346Z,5.05
2022-08-16T03:19:48.391Z,5.13
2022-08-16T03:22:18.858Z,5.57
2022-08-16T03:24:57.363Z,4.90
2022-08-16T03:27:25.450Z,5.22
2022-08-16T03:29:59.267Z,5.38
2022-08-16T03:32:26.781Z,5.35
2022-08-16T03:34:54.113Z,5.68
2022-08-16T03:37:21.240Z,5.30
2022-08-16T03:39:48.147Z,5.15
2022-08-16T03:42:23.330Z,5.45
2022-08-16T03:44:50.439Z,5.45
2022-08-16T03:47:19.750Z,5.30
2022-08-16T03:49:52.362Z,5.03
2022-08-16T03:52:23.567Z,5.53
2022-08-16T03:54:53.232Z,5.38
2022-08-16T03:57:32.087Z,5.50
2022-08-16T04:00:20.496Z,5.40
2022-08-16T04:03:07.349Z,5.30
2022-08-16T04:05:37.845Z,5.10
2022-08-16T04:08:15.141Z,5.47
2022-08-16T04:10:52.813Z,5.63
2022-08-16T04:13:59.127Z,5.47
2022-08-16T04:16:08.052Z,5.35
2022-08-16T04:18:38.740Z,4.70
2022-08-16T04:21:06.186Z,5.45
2022-08-16T04:23:33.179Z,5.57
2022-08-16T04:26:01.841Z,5.30
2022-08-16T04:28:54.531Z,5.38
2022-08-16T04:31:16.704Z,5.05
2022-08-16T04:33:50.906Z,5.38
2022-08-16T04:36:20.250Z,5.10
2022-08-16T04:38:50.142Z,5.43
2022-08-16T04:41:19.394Z,5.35
2022-08-16T04:43:59.960Z,5.55
2022-08-16T04:47:00.789Z,5.20
2022-08-16T04:49:13.833Z,4.95
2022-08-16T04:51:43.997Z,5.07
2022-08-16T04:54:20.847Z,5.38
2022-08-16T04:56:48.716Z,5.20
2022-08-16T04:59:15.691Z,5.10
2022-08-16T05:01:58.304Z,5.40
2022-08-16T05:04:25.869Z,5.70
2022-08-16T05:06:58.028Z,4.70
2022-08-16T05:09:24.910Z,5.00
2022-08-16T05:11:51.866Z,4.90
2022-08-16T05:14:20.320Z,5.20
2022-08-16T05:17:05.581Z,5.28
2022-08-16T05:19:35.935Z,4.57
2022-08-16T05:22:03.854Z,4.90
2022-08-16T05:24:31.472Z,5.32
2022-08-16T05:26:58.411Z,4.53
2022-08-16T05:29:57.417Z,5.05
2022-08-16T05:32:32.776Z,4.80
2022-08-16T05:34:59.217Z,4.60
2022-08-16T05:37:26.784Z,4.38
2022-08-16T05:40:06.928Z,4.72
2022-08-16T05:42:35.764Z,4.70
2022-08-16T05:45:22.090Z,5.20
2022-08-16T05:47:59.523Z,4.80
2022-08-16T05:50:28.327Z,5.25
2022-08-16T05:53:01.659Z,4.88
2022-08-16T05:55:28.596Z,5.43
2022-08-16T05:57:57.212Z,4.82
2022-08-16T06:00:25.307Z,4.93
2022-08-16T06:02:52.539Z,4.93
2022-08-16T06:05:19.831Z,5.20
2022-08-16T06:07:58.373Z,4.55
2022-08-16T06:10:33.175Z,4.60
2022-08-16T06:13:00.306Z,5.30
2022-08-16T06:15:27.571Z,4.95
2022-08-16T06:17:59.053Z,4.93
2022-08-16T06:20:35.168Z,5.22
2022-08-16T06:23:16.845Z,5.20
2022-08-16T06:25:44.280Z,4.90
2022-08-16T06:28:35.791Z,4.85
2022-08-16T06:31:05.829Z,4.97
2022-08-16T06:33:41.997Z,4.82
2022-08-16T06:36:10.608Z,4.90
2022-08-16T06:38:38.758Z,4.70
2022-08-16T06:41:23.316Z,4.55
2022-08-16T06:43:54.118Z,4.63
2022-08-16T06:46:31.936Z,4.40
2022-08-16T06:49:00.697Z,4.63
2022-08-16T06:51:45.680Z,5.10
2022-08-16T06:54:14.901Z,4.63
2022-08-16T06:56:42.635Z,4.65
2022-08-16T06:59:10.634Z,4.20
2022-08-16T07:01:43.071Z,4.50
2022-08-16T07:04:13.451Z,4.60
2022-08-16T07:07:00.964Z,4.65
2022-08-16T07:09:29.745Z,4.20
2022-08-16T07:12:03.223Z,4.07
2022-08-16T07:14:31.246Z,4.20
2022-08-16T07:16:59.941Z,4.38
2022-08-16T07:20:03.991Z,4.18
2022-08-16T07:22:38.767Z,4.20
2022-08-16T07:25:12.029Z,3.80
2022-08-16T07:27:40.061Z,3.83
2022-08-16T07:30:45.647Z,3.97
2022-08-16T07:33:00.367Z,4.25
2022-08-16T07:35:27.323Z,4.30
2022-08-16T07:37:54.423Z,4.03
2022-08-16T07:40:36.937Z,4.35
2022-08-16T07:43:08.695Z,4.00
2022-08-16T07:45:37.102Z,3.60
2022-08-16T07:48:11.106Z,3.85
2022-08-16T07:50:57.851Z,3.80
2022-08-16T07:53:28.932Z,3.75
2022-08-16T07:55:56.567Z,4.03
2022-08-16T07:58:34.167Z,4.00
2022-08-16T08:01:10.585Z,4.00
2022-08-16T08:03:48.468Z,4.10
2022-08-16T08:06:20.978Z,3.78
2022-08-16T08:08:57.482Z,3.55
2022-08-16T08:11:28.237Z,4.07
2022-08-16T08:13:57.585Z,3.90
2022-08-16T08:16:31.468Z,4.18
2022-08-16T08:19:02.892Z,4.45
2022-08-16T08:24:18.103Z,3.63
2022-08-16T08:26:50.380Z,4.15
2022-08-16T08:29:22.945Z,4.20
2022-08-16T08:31:53.218Z,3.90
2022-08-16T08:34:22.155Z,3.95
2022-08-16T08:36:54.097Z,3.92
2022-08-16T08:39:22.568Z,3.80
2022-08-16T08:41:50.425Z,3.90
2022-08-16T08:44:29.007Z,3.65
2022-08-16T08:47:02.012Z,3.35
2022-08-16T08:49:46.740Z,3.63
2022-08-16T08:52:35.136Z,4.15
2022-08-16T08:55:10.318Z,4.20
2022-08-16T08:57:42.129Z,3.83
2022-08-16T09:00:13.637Z,4.18
2022-08-16T09:02:44.401Z,4.03
2022-08-16T09:05:16.353Z,4.50
2022-08-16T09:08:01.326Z,4.03
2022-08-16T09:10:31.593Z,4.03
2022-08-16T09:13:01.425Z,4.03
2022-08-16T09:15:33.196Z,3.55
2022-08-16T09:18:24.518Z,3.92
2022-08-16T09:20:59.432Z,4.03
2022-08-16T09:23:29.439Z,4.13
2022-08-16T09:25:56.437Z,4.07
2022-08-16T09:29:15.269Z,3.80
2022-08-16T09:31:10.934Z,3.88
2022-08-16T09:33:39.362Z,4.57
2022-08-16T09:36:12.330Z,4.13
2022-08-16T09:38:59.857Z,4.15
2022-08-16T09:43:59.781Z,4.05
2022-08-16T09:46:44.585Z,3.92
2022-08-16T09:49:12.799Z,4.25
2022-08-16T09:51:40.403Z,5.25
2022-08-16T09:54:09.739Z,4.32
2022-08-16T09:56:39.490Z,4.07
2022-08-16T09:59:21.055Z,4.78
2022-08-16T10:01:51.688Z,6.95
2022-08-16T10:04:31.699Z,5.13
2022-08-16T10:07:15.317Z,4.50
2022-08-16T10:09:53.955Z,4.50
2022-08-16T10:12:46.032Z,3.92
2022-08-16T10:15:21.035Z,4.45
2022-08-16T10:18:00.212Z,4.40
2022-08-16T10:20:41.068Z,4.20
2022-08-16T10:23:17.309Z,4.95
2022-08-16T10:27:16.383Z,4.70
2022-08-16T10:28:39.852Z,4.60
2022-08-16T10:31:09.088Z,5.13
2022-08-16T10:33:41.903Z,4.57
2022-08-16T10:36:12.212Z,5.18
2022-08-16T10:38:58.898Z,5.18
2022-08-16T10:41:25.780Z,5.10
2022-08-16T10:43:52.726Z,4.70
2022-08-16T10:46:39.189Z,5.10
2022-08-16T10:49:06.436Z,5.57
2022-08-16T10:52:00.787Z,5.38
2022-08-16T10:54:29.277Z,4.80
2022-08-16T10:57:03.986Z,5.30
2022-08-16T10:59:45.985Z,5.13
2022-08-16T11:03:37.432Z,5.10
2022-08-16T11:05:12.436Z,5.28
2022-08-16T11:07:51.609Z,5.13
2022-08-16T11:19:06.456Z,4.80
2022-08-16T11:22:39.155Z,5.30
2022-08-16T11:24:42.628Z,5.57
2022-08-16T11:27:23.356Z,4.93
2022-08-16T11:29:56.701Z,5.05
2022-08-16T11:32:31.474Z,5.22
2022-08-16T11:35:15.050Z,4.93
2022-08-16T11:38:47.285Z,5.22
2022-08-16T11:40:52.808Z,5.40
2022-08-16T11:43:24.939Z,5.70
2022-08-16T11:45:55.317Z,4.97
2022-08-16T11:48:29.038Z,5.20
2022-08-16T11:50:56.457Z,5.10
2022-08-16T11:53:24.362Z,5.65
2022-08-16T11:55:54.958Z,5.40
2022-08-16T11:58:25.428Z,5.45
2022-08-16T12:00:55.007Z,5.20
2022-08-16T12:03:34.658Z,5.63
2022-08-16T12:06:30.395Z,5.47
2022-08-16T12:09:00.981Z,5.38
2022-08-16T12:11:31.398Z,5.25
2022-08-16T12:14:01.114Z,4.80
2022-08-16T12:16:31.264Z,5.05
2022-08-16T12:19:06.199Z,5.47
2022-08-16T12:21:58.420Z,4.93
2022-08-16T12:24:24.396Z,5.13
2022-08-16T12:26:52.642Z,4.72
2022-08-16T12:29:21.124Z,4.93
2022-08-16T12:32:01.731Z,5.10
2022-08-16T12:34:38.593Z,4.88
2022-08-16T12:37:17.737Z,5.10
2022-08-16T12:39:50.817Z,5.20
2022-08-16T12:42:20.556Z,5.07
2022-08-16T12:44:48.605Z,5.32
2022-08-16T12:47:37.204Z,4.88
2022-08-16T12:50:10.593Z,4.95
2022-08-16T12:52:48.938Z,5.07
2022-08-16T12:55:20.566Z,4.88
2022-08-16T12:57:58.570Z,5.25
2022-08-16T13:00:33.327Z,5.30
2022-08-16T13:03:03.036Z,5.50
2022-08-16T13:05:36.706Z,5.93
2022-08-16T13:08:03.883Z,5.70
2022-08-16T13:10:36.973Z,5.43
2022-08-16T13:13:06.517Z,5.18
2022-08-16T13:15:36.247Z,6.03
2022-08-16T13:18:24.303Z,5.75
2022-08-16T13:20:54.489Z,5.63
2022-08-16T13:23:23.393Z,5.95
2022-08-16T13:25:51.888Z,5.60
2022-08-16T13:30:52.172Z,5.93
2022-08-16T13:33:30.558Z,5.43
2022-08-16T13:36:00.383Z,5.50
2022-08-16T13:38:31.469Z,5.78
2022-08-16T13:41:05.294Z,5.78
2022-08-16T13:43:35.858Z,6.00
2022-08-16T13:46:04.365Z,5.70
2022-08-16T13:48:43.111Z,6.47
2022-08-16T13:51:18.011Z,5.75
2022-08-16T13:53:59.395Z,5.50
2022-08-16T13:56:37.061Z,6.32
2022-08-16T13:59:19.198Z,6.07
2022-08-16T14:01:55.422Z,6.20
2022-08-16T14:04:30.161Z,6.00
2022-08-16T14:06:59.966Z,6.35
2022-08-16T14:09:29.064Z,6.30
2022-08-16T14:12:00.678Z,6.53
2022-08-16T14:14:29.990Z,6.72
2022-08-16T14:17:00.015Z,7.07
2022-08-16T14:19:29.668Z,7.07
2022-08-16T14:22:14.639Z,6.47
2022-08-16T14:27:18.061Z,7.22
2022-08-16T14:29:49.244Z,6.80
2022-08-16T14:32:32.667Z,6.60
2022-08-16T14:35:07.472Z,6.80
2022-08-16T14:37:35.318Z,7.32
2022-08-16T14:40:03.379Z,7.80
2022-08-16T14:42:30.966Z,7.00
2022-08-16T14:45:00.494Z,7.50
2022-08-16T14:47:34.264Z,8.00
2022-08-16T14:50:02.783Z,8.40
2022-08-16T14:52:53.950Z,7.78
2022-08-16T14:55:17.652Z,8.95
2022-08-16T14:57:47.531Z,9.20
2022-08-16T15:00:15.722Z,9.57
2022-08-16T15:02:49.858Z,9.60
2022-08-16T15:05:23.139Z,9.32
2022-08-16T15:07:51.574Z,9.93
2022-08-16T15:10:23.863Z,9.25
2022-08-16T15:12:56.322Z,9.00
2022-08-16T15:15:27.951Z,9.18
2022-08-16T15:17:56.647Z,9.18
2022-08-16T15:20:30.007Z,9.60
2022-08-16T15:22:59.828Z,9.88
2022-08-16T15:25:34.198Z,8.93
2022-08-16T15:28:04.829Z,9.13
2022-08-16T15:30:57.748Z,9.43
2022-08-16T15:33:25.448Z,9.02
2022-08-16T15:35:54.144Z,8.77
2022-08-16T15:38:56.865Z,9.27
2022-08-16T15:41:43.162Z,8.63
2022-08-16T15:44:14.219Z,8.73
2022-08-16T15:46:55.492Z,8.45
2022-08-16T15:49:38.117Z,8.68
2022-08-16T15:52:12.452Z,8.18
2022-08-16T15:54:53.180Z,8.88
2022-08-16T15:57:22.952Z,8.25
2022-08-16T15:59:52.485Z,8.57
2022-08-16T16:02:29.164Z,8.45
2022-08-16T16:05:04.575Z,8.50
2022-08-16T16:07:33.482Z,8.48
2022-08-16T16:10:03.882Z,11.57
2022-08-16T16:12:51.715Z,8.38
2022-08-16T16:15:22.668Z,8.77
2022-08-16T16:17:51.062Z,7.85
2022-08-16T16:20:27.570Z,8.25
2022-08-16T16:23:04.251Z,8.43
2022-08-16T16:25:37.261Z,8.65
2022-08-16T16:28:04.109Z,8.60
2022-08-16T16:30:44.791Z,9.20
2022-08-16T16:33:20.859Z,9.10
2022-08-16T16:35:55.458Z,8.55
2022-08-16T16:38:30.638Z,8.77
2022-08-16T16:41:08.958Z,9.50
2022-08-16T16:43:42.055Z,9.00
2022-08-16T16:46:38.979Z,8.80
2022-08-16T16:48:59.992Z,9.18
2022-08-16T16:51:28.009Z,9.65
2022-08-16T16:53:57.015Z,9.43
2022-08-16T16:56:30.192Z,9.75
2022-08-16T16:59:06.083Z,10.00
2022-08-16T17:01:56.940Z,8.73
2022-08-16T17:04:31.984Z,10.32
2022-08-16T17:07:03.582Z,9.75
2022-08-16T17:09:30.715Z,9.67
2022-08-16T17:11:58.625Z,9.43
2022-08-16T17:14:33.813Z,10.75
2022-08-16T17:17:08.751Z,9.95
2022-08-16T17:19:41.188Z,10.75
2022-08-16T17:22:20.594Z,9.85
2022-08-16T17:24:52.299Z,10.60
2022-08-16T17:27:33.104Z,10.38
2022-08-16T17:30:16.293Z,9.65
2022-08-16T17:32:54.645Z,11.18
2022-08-16T17:35:40.654Z,10.88
2022-08-16T17:38:09.403Z,10.23
2022-08-16T17:40:54.993Z,10.80
2022-08-16T17:43:34.078Z,11.70
2022-08-16T17:46:04.317Z,10.98
2022-08-16T17:48:32.158Z,10.85
2022-08-16T17:50:59.906Z,11.40
2022-08-16T17:53:27.203Z,11.27
2022-08-16T17:55:54.690Z,11.43
2022-08-16T17:58:24.138Z,11.10
2022-08-16T18:00:54.220Z,11.95
2022-08-16T18:04:02.597Z,13.10
2022-08-16T18:06:13.926Z,12.88
2022-08-16T18:08:45.114Z,12.70
2022-08-16T18:11:25.625Z,12.82
2022-08-16T18:13:54.249Z,12.70
2022-08-16T18:16:21.029Z,12.25
2022-08-16T18:18:47.849Z,12.93
2022-08-16T18:21:34.274Z,13.23
2022-08-16T18:24:01.281Z,13.05
2022-08-16T18:26:28.600Z,13.38
2022-08-16T18:28:55.406Z,12.80
2022-08-16T18:31:22.356Z,12.88
2022-08-16T18:33:49.520Z,13.40
2022-08-16T18:36:21.903Z,13.55
2022-08-16T18:38:50.038Z,13.57
2022-08-16T18:41:17.929Z,13.80
2022-08-16T18:44:24.216Z,14.07
2022-08-16T18:46:31.673Z,15.63
2022-08-16T18:48:58.733Z,18.13
2022-08-16T18:51:25.981Z,17.60
2022-08-16T18:53:53.477Z,15.45
2022-08-16T18:56:20.601Z,16.13
2022-08-16T18:58:47.435Z,16.83
2022-08-16T19:01:14.508Z,18.20
2022-08-16T19:03:41.411Z,17.52
2022-08-16T19:06:13.839Z,17.73
2022-08-16T19:08:43.524Z,17.08
2022-08-16T19:11:15.380Z,15.75
2022-08-16T19:13:44.271Z,15.40
2022-08-16T19:16:13.200Z,14.63
2022-08-16T19:18:40.121Z,14.27
2022-08-16T19:21:08.903Z,14.10
2022-08-16T19:23:37.751Z,14.52
2022-08-16T19:26:23.411Z,14.38
2022-08-16T19:28:59.891Z,13.55
2022-08-16T19:31:33.092Z,14.60
2022-08-16T19:34:01.412Z,13.80
2022-08-16T19:36:34.136Z,13.95
2022-08-16T19:39:14.222Z,14.20
2022-08-16T19:41:44.490Z,13.82
2022-08-16T19:44:11.634Z,14.13
2022-08-16T19:46:41.780Z,13.52
2022-08-16T19:49:08.668Z,13.68
2022-08-16T19:51:35.677Z,14.65
2022-08-16T19:54:04.908Z,13.48
2022-08-16T19:56:31.743Z,13.82
2022-08-16T20:01:46.363Z,13.55
2022-08-16T20:04:13.572Z,12.38
2022-08-16T20:06:41.913Z,12.73
2022-08-16T20:09:10.541Z,12.80
2022-08-16T20:11:41.530Z,12.90
2022-08-16T20:14:08.471Z,11.68
2022-08-16T20:16:35.889Z,11.63
2022-08-16T20:19:04.581Z,11.05
2022-08-16T20:21:34.499Z,11.65
2022-08-16T20:24:31.966Z,12.10
2022-08-16T20:26:48.577Z,12.10
2022-08-16T20:29:15.577Z,11.40
2022-08-16T20:31:42.517Z,12.05
2022-08-16T20:34:09.359Z,12.50
2022-08-16T20:36:36.318Z,12.32
2022-08-16T20:39:04.910Z,12.15
2022-08-16T20:41:31.866Z,13.13
2022-08-16T20:43:58.758Z,12.13
2022-08-16T20:46:26.740Z,12.75
2022-08-16T20:48:53.554Z,12.02
2022-08-16T20:51:20.373Z,11.90
2022-08-16T20:53:47.174Z,12.85
2022-08-16T20:56:14.169Z,12.45
2022-08-16T20:58:41.023Z,11.90
2022-08-16T21:01:08.191Z,11.30
2022-08-16T21:03:35.634Z,11.77
2022-08-16T21:06:02.908Z,11.75
2022-08-16T21:08:53.512Z,12.00
2022-08-16T21:11:17.867Z,12.30
2022-08-16T21:13:44.702Z,11.70
2022-08-16T21:16:11.773Z,12.63
2022-08-16T21:18:38.816Z,11.68
2022-08-16T21:21:05.661Z,12.15
2022-08-16T21:23:32.532Z,11.75
2022-08-16T21:25:59.929Z,11.80
2022-08-16T21:28:39.325Z,12.00
2022-08-16T21:31:09.591Z,12.10
2022-08-16T21:33:36.528Z,11.50
2022-08-16T21:36:03.605Z,11.85
2022-08-16T21:38:31.098Z,11.00
2022-08-16T21:41:03.430Z,11.10
2022-08-16T21:43:32.048Z,11.25
2022-08-16T21:46:03.887Z,11.45
2022-08-16T21:48:35.278Z,10.55
2022-08-16T21:51:21.193Z,11.18
2022-08-16T21:53:48.209Z,11.35
2022-08-16T21:56:17.191Z,10.73
2022-08-16T21:58:46.394Z,10.50
2022-08-16T22:01:15.288Z,11.23
2022-08-16T22:03:42.734Z,10.30
2022-08-16T22:06:13.167Z,10.23
2022-08-16T22:08:51.140Z,11.15
2022-08-16T22:11:23.941Z,10.95
2022-08-16T22:13:57.847Z,10.95
2022-08-16T22:16:32.274Z,10.32
2022-08-16T22:19:00.068Z,10.27
2022-08-16T22:21:27.167Z,10.70
2022-08-16T22:23:57.039Z,10.65
2022-08-16T22:26:31.709Z,10.27
2022-08-16T22:29:08.630Z,10.82
2022-08-16T22:31:37.316Z,10.77
2022-08-16T22:34:04.492Z,9.88
2022-08-16T22:36:33.176Z,10.35
2022-08-16T22:39:03.557Z,10.05
2022-08-16T22:41:32.717Z,10.20
2022-08-16T22:44:01.358Z,9.57
2022-08-16T22:46:28.599Z,9.68
2022-08-16T22:48:55.502Z,9.95
2022-08-16T22:51:26.090Z,9.75
2022-08-16T22:53:54.028Z,10.18
2022-08-16T22:56:22.464Z,9.80
2022-08-16T22:58:50.138Z,9.68
2022-08-16T23:01:19.495Z,9.55
2022-08-16T23:03:46.476Z,10.57
2022-08-16T23:06:14.566Z,12.02
2022-08-16T23:08:43.066Z,11.20
2022-08-16T23:11:19.530Z,11.25
2022-08-16T23:13:52.408Z,10.98
2022-08-16T23:16:33.432Z,10.77
2022-08-16T23:19:10.837Z,9.30
2022-08-16T23:21:40.842Z,9.43
2022-08-16T23:24:08.652Z,9.50
2022-08-16T23:26:48.150Z,9.68
2022-08-16T23:29:23.157Z,9.32
2022-08-16T23:31:58.624Z,9.88
2022-08-16T23:34:28.172Z,10.05
2022-08-16T23:36:55.591Z,10.57
2022-08-16T23:39:23.613Z,11.05
2022-08-16T23:41:50.892Z,11.07
2022-08-16T23:44:57.362Z,11.52
2022-08-16T23:47:06.274Z,11.52
2022-08-16T23:50:00.199Z,11.60
2022-08-16T23:52:53.083Z,12.90
2022-08-16T23:55:08.520Z,12.77
2022-08-16T23:57:35.351Z,12.63
